sensor_id;sensor_type;location;lat;lon;timestamp;P1;durP1;ratioP1;P2;durP2;ratioP2
2129;SDS011;1071;52.544;13.374;2023-11-21T00:02:24;14.80;;;10.80;;
2129;SDS011;1071;52.544;13.374;2023-11-21T00:04:52;11.65;;;9.70;;
2129;SDS011;1071;52.544;13.374;2023-11-21T00:07:19;10.45;;;8.90;;
2129;SDS011;1071;52.544;13.374;2023-11-21T00:09:46;12.52;;;11.23;;
2129;SDS011;1071;52.544;13.374;2023-11-21T00:12:14;10.90;;;9.45;;
2129;SDS011;1071;52.544;13.374;2023-11-21T00:14:42;13.65;;;10.93;;
2129;SDS011;1071;52.544;13.374;2023-11-21T00:17:11;14.20;;;12.43;;
2129;SDS011;1071;52.544;13.374;2023-11-21T00:19:38;18.35;;;12.48;;
2129;SDS011;1071;52.544;13.374;2023-11-21T00:22:05;16.55;;;11.93;;
2129;SDS011;1071;52.544;13.374;2023-11-21T00:24:32;18.17;;;12.90;;
2129;SDS011;1071;52.544;13.374;2023-11-21T00:26:59;22.60;;;15.43;;
2129;SDS011;1071;52.544;13.374;2023-11-21T00:29:26;20.25;;;14.80;;
2129;SDS011;1071;52.544;13.374;2023-11-21T00:31:55;18.23;;;14.60;;
2129;SDS011;1071;52.544;13.374;2023-11-21T00:34:21;24.33;;;15.57;;
2129;SDS011;1071;52.544;13.374;2023-11-21T00:36:48;22.42;;;16.90;;
2129;SDS011;1071;52.544;13.374;2023-11-21T00:39:15;19.85;;;15.52;;
2129;SDS011;1071;52.544;13.374;2023-11-21T00:41:41;26.17;;;17.20;;
2129;SDS011;1071;52.544;13.374;2023-11-21T00:44:09;25.73;;;18.10;;
2129;SDS011;1071;52.544;13.374;2023-11-21T00:46:36;29.00;;;16.50;;
2129;SDS011;1071;52.544;13.374;2023-11-21T00:49:04;30.13;;;17.48;;
2129;SDS011;1071;52.544;13.374;2023-11-21T00:51:32;29.63;;;18.98;;
2129;SDS011;1071;52.544;13.374;2023-11-21T00:54:00;26.80;;;17.83;;
2129;SDS011;1071;52.544;13.374;2023-11-21T00:56:27;34.28;;;20.27;;
2129;SDS011;1071;52.544;13.374;2023-11-21T00:58:54;37.95;;;21.48;;
2129;SDS011;1071;52.544;13.374;2023-11-21T01:01:21;34.22;;;19.05;;
2129;SDS011;1071;52.544;13.374;2023-11-21T01:03:49;35.00;;;22.30;;
2129;SDS011;1071;52.544;13.374;2023-11-21T01:06:18;36.38;;;23.15;;
2129;SDS011;1071;52.544;13.374;2023-11-21T01:08:46;33.00;;;22.05;;
2129;SDS011;1071;52.544;13.374;2023-11-21T01:11:13;38.17;;;24.35;;
2129;SDS011;1071;52.544;13.374;2023-11-21T01:13:40;35.90;;;23.02;;
2129;SDS011;1071;52.544;13.374;2023-11-21T01:16:12;36.13;;;24.13;;
2129;SDS011;1071;52.544;13.374;2023-11-21T01:18:43;44.47;;;24.17;;
2129;SDS011;1071;52.544;13.374;2023-11-21T01:21:09;39.03;;;21.92;;
2129;SDS011;1071;52.544;13.374;2023-11-21T01:23:38;38.25;;;22.85;;
2129;SDS011;1071;52.544;13.374;2023-11-21T01:26:05;34.38;;;21.48;;
2129;SDS011;1071;52.544;13.374;2023-11-21T01:28:34;38.42;;;22.10;;
2129;SDS011;1071;52.544;13.374;2023-11-21T01:31:01;35.25;;;20.35;;
2129;SDS011;1071;52.544;13.374;2023-11-21T01:33:28;36.97;;;21.58;;
2129;SDS011;1071;52.544;13.374;2023-11-21T01:35:55;30.98;;;20.33;;
2129;SDS011;1071;52.544;13.374;2023-11-21T01:38:22;32.40;;;22.42;;
2129;SDS011;1071;52.544;13.374;2023-11-21T01:40:50;32.25;;;19.40;;
2129;SDS011;1071;52.544;13.374;2023-11-21T01:43:20;31.42;;;17.85;;
2129;SDS011;1071;52.544;13.374;2023-11-21T01:45:47;31.38;;;18.42;;
2129;SDS011;1071;52.544;13.374;2023-11-21T01:48:14;34.60;;;20.48;;
2129;SDS011;1071;52.544;13.374;2023-11-21T01:50:42;31.17;;;19.35;;
2129;SDS011;1071;52.544;13.374;2023-11-21T01:53:10;32.03;;;19.13;;
2129;SDS011;1071;52.544;13.374;2023-11-21T01:55:39;30.08;;;19.10;;
2129;SDS011;1071;52.544;13.374;2023-11-21T01:58:08;31.95;;;17.70;;
2129;SDS011;1071;52.544;13.374;2023-11-21T02:00:37;29.67;;;16.52;;
2129;SDS011;1071;52.544;13.374;2023-11-21T02:03:04;24.67;;;16.58;;
2129;SDS011;1071;52.544;13.374;2023-11-21T02:05:31;24.63;;;15.20;;
2129;SDS011;1071;52.544;13.374;2023-11-21T02:07:58;22.95;;;14.55;;
2129;SDS011;1071;52.544;13.374;2023-11-21T02:10:25;21.17;;;14.10;;
2129;SDS011;1071;52.544;13.374;2023-11-21T02:12:52;23.27;;;14.63;;
2129;SDS011;1071;52.544;13.374;2023-11-21T02:15:22;22.48;;;12.82;;
2129;SDS011;1071;52.544;13.374;2023-11-21T02:17:53;21.02;;;11.82;;
2129;SDS011;1071;52.544;13.374;2023-11-21T02:20:23;18.63;;;11.75;;
2129;SDS011;1071;52.544;13.374;2023-11-21T02:22:53;18.05;;;10.80;;
2129;SDS011;1071;52.544;13.374;2023-11-21T02:25:23;15.73;;;11.13;;
2129;SDS011;1071;52.544;13.374;2023-11-21T02:27:50;14.02;;;10.20;;
2129;SDS011;1071;52.544;13.374;2023-11-21T02:30:17;11.40;;;8.77;;
2129;SDS011;1071;52.544;13.374;2023-11-21T02:32:44;11.48;;;8.50;;
2129;SDS011;1071;52.544;13.374;2023-11-21T02:35:13;12.15;;;9.70;;
2129;SDS011;1071;52.544;13.374;2023-11-21T02:37:41;13.52;;;10.68;;
2129;SDS011;1071;52.544;13.374;2023-11-21T02:40:10;12.18;;;9.98;;
2129;SDS011;1071;52.544;13.374;2023-11-21T02:42:38;11.95;;;9.68;;
2129;SDS011;1071;52.544;13.374;2023-11-21T02:45:06;11.07;;;8.88;;
2129;SDS011;1071;52.544;13.374;2023-11-21T02:47:34;10.45;;;8.35;;
2129;SDS011;1071;52.544;13.374;2023-11-21T02:50:01;9.73;;;8.60;;
2129;SDS011;1071;52.544;13.374;2023-11-21T02:52:28;9.80;;;8.77;;
2129;SDS011;1071;52.544;13.374;2023-11-21T02:54:58;11.25;;;10.15;;
2129;SDS011;1071;52.544;13.374;2023-11-21T02:57:26;10.32;;;9.23;;
2129;SDS011;1071;52.544;13.374;2023-11-21T02:59:53;12.75;;;11.10;;
2129;SDS011;1071;52.544;13.374;2023-11-21T03:02:20;11.00;;;9.90;;
2129;SDS011;1071;52.544;13.374;2023-11-21T03:04:47;8.93;;;8.07;;
2129;SDS011;1071;52.544;13.374;2023-11-21T03:07:14;9.35;;;8.30;;
2129;SDS011;1071;52.544;13.374;2023-11-21T03:09:41;9.40;;;8.40;;
2129;SDS011;1071;52.544;13.374;2023-11-21T03:12:09;9.23;;;8.15;;
2129;SDS011;1071;52.544;13.374;2023-11-21T03:14:38;14.57;;;8.48;;
2129;SDS011;1071;52.544;13.374;2023-11-21T03:17:08;8.73;;;7.85;;
2129;SDS011;1071;52.544;13.374;2023-11-21T03:19:35;10.60;;;9.60;;
2129;SDS011;1071;52.544;13.374;2023-11-21T03:22:03;10.77;;;9.18;;
2129;SDS011;1071;52.544;13.374;2023-11-21T03:24:30;12.50;;;11.23;;
2129;SDS011;1071;52.544;13.374;2023-11-21T03:26:57;10.23;;;9.13;;
2129;SDS011;1071;52.544;13.374;2023-11-21T03:29:25;10.50;;;9.50;;
2129;SDS011;1071;52.544;13.374;2023-11-21T03:31:53;12.25;;;10.30;;
2129;SDS011;1071;52.544;13.374;2023-11-21T03:34:23;10.55;;;8.68;;
2129;SDS011;1071;52.544;13.374;2023-11-21T03:36:51;12.15;;;9.20;;
2129;SDS011;1071;52.544;13.374;2023-11-21T03:39:19;11.05;;;10.00;;
2129;SDS011;1071;52.544;13.374;2023-11-21T03:41:47;9.40;;;8.50;;
2129;SDS011;1071;52.544;13.374;2023-11-21T03:44:14;9.25;;;8.35;;
2129;SDS011;1071;52.544;13.374;2023-11-21T03:46:42;9.98;;;8.88;;
2129;SDS011;1071;52.544;13.374;2023-11-21T03:49:10;9.07;;;8.18;;
2129;SDS011;1071;52.544;13.374;2023-11-21T03:51:37;8.63;;;7.82;;
2129;SDS011;1071;52.544;13.374;2023-11-21T03:54:04;11.38;;;10.27;;
2129;SDS011;1071;52.544;13.374;2023-11-21T03:56:35;11.77;;;9.40;;
2129;SDS011;1071;52.544;13.374;2023-11-21T03:59:02;11.77;;;10.60;;
2129;SDS011;1071;52.544;13.374;2023-11-21T04:01:29;9.20;;;8.30;;
2129;SDS011;1071;52.544;13.374;2023-11-21T04:03:56;10.55;;;9.45;;
2129;SDS011;1071;52.544;13.374;2023-11-21T04:06:24;11.75;;;10.15;;
2129;SDS011;1071;52.544;13.374;2023-11-21T04:08:52;11.32;;;10.13;;
2129;SDS011;1071;52.544;13.374;2023-11-21T04:11:19;11.00;;;9.32;;
2129;SDS011;1071;52.544;13.374;2023-11-21T04:13:46;9.55;;;8.52;;
2129;SDS011;1071;52.544;13.374;2023-11-21T04:16:13;11.90;;;10.73;;
2129;SDS011;1071;52.544;13.374;2023-11-21T04:18:40;12.68;;;10.07;;
2129;SDS011;1071;52.544;13.374;2023-11-21T04:21:07;11.30;;;10.10;;
2129;SDS011;1071;52.544;13.374;2023-11-21T04:23:36;11.35;;;9.90;;
2129;SDS011;1071;52.544;13.374;2023-11-21T04:26:03;10.48;;;8.90;;
2129;SDS011;1071;52.544;13.374;2023-11-21T04:28:29;11.65;;;10.48;;
2129;SDS011;1071;52.544;13.374;2023-11-21T04:30:56;12.40;;;11.20;;
2129;SDS011;1071;52.544;13.374;2023-11-21T04:33:23;12.48;;;10.75;;
2129;SDS011;1071;52.544;13.374;2023-11-21T04:35:50;11.27;;;9.98;;
2129;SDS011;1071;52.544;13.374;2023-11-21T04:38:17;10.73;;;9.60;;
2129;SDS011;1071;52.544;13.374;2023-11-21T04:40:46;11.93;;;10.00;;
2129;SDS011;1071;52.544;13.374;2023-11-21T04:43:13;11.48;;;9.85;;
2129;SDS011;1071;52.544;13.374;2023-11-21T04:45:40;12.90;;;10.13;;
2129;SDS011;1071;52.544;13.374;2023-11-21T04:48:07;11.18;;;9.55;;
2129;SDS011;1071;52.544;13.374;2023-11-21T04:50:36;12.90;;;10.02;;
2129;SDS011;1071;52.544;13.374;2023-11-21T04:53:04;13.13;;;9.63;;
2129;SDS011;1071;52.544;13.374;2023-11-21T04:55:31;12.07;;;9.98;;
2129;SDS011;1071;52.544;13.374;2023-11-21T04:57:59;10.27;;;9.27;;
2129;SDS011;1071;52.544;13.374;2023-11-21T05:00:26;10.70;;;9.35;;
2129;SDS011;1071;52.544;13.374;2023-11-21T05:02:53;9.90;;;8.63;;
2129;SDS011;1071;52.544;13.374;2023-11-21T05:05:20;9.55;;;8.68;;
2129;SDS011;1071;52.544;13.374;2023-11-21T05:07:47;10.25;;;8.70;;
2129;SDS011;1071;52.544;13.374;2023-11-21T05:10:14;10.93;;;9.60;;
2129;SDS011;1071;52.544;13.374;2023-11-21T05:12:41;8.93;;;7.68;;
2129;SDS011;1071;52.544;13.374;2023-11-21T05:15:12;11.40;;;9.13;;
2129;SDS011;1071;52.544;13.374;2023-11-21T05:17:41;12.05;;;9.02;;
2129;SDS011;1071;52.544;13.374;2023-11-21T05:20:09;9.70;;;8.75;;
2129;SDS011;1071;52.544;13.374;2023-11-21T05:22:38;9.70;;;8.70;;
2129;SDS011;1071;52.544;13.374;2023-11-21T05:25:05;9.20;;;8.35;;
2129;SDS011;1071;52.544;13.374;2023-11-21T05:27:33;11.05;;;9.55;;
2129;SDS011;1071;52.544;13.374;2023-11-21T05:30:01;12.35;;;9.75;;
2129;SDS011;1071;52.544;13.374;2023-11-21T05:32:31;10.38;;;8.05;;
2129;SDS011;1071;52.544;13.374;2023-11-21T05:34:58;9.27;;;8.38;;
2129;SDS011;1071;52.544;13.374;2023-11-21T05:37:25;10.13;;;9.10;;
2129;SDS011;1071;52.544;13.374;2023-11-21T05:39:52;9.27;;;8.30;;
2129;SDS011;1071;52.544;13.374;2023-11-21T05:42:21;10.48;;;9.00;;
2129;SDS011;1071;52.544;13.374;2023-11-21T05:44:48;9.40;;;8.48;;
2129;SDS011;1071;52.544;13.374;2023-11-21T05:47:15;10.55;;;9.45;;
2129;SDS011;1071;52.544;13.374;2023-11-21T05:49:44;9.07;;;8.18;;
2129;SDS011;1071;52.544;13.374;2023-11-21T05:52:15;10.75;;;7.60;;
2129;SDS011;1071;52.544;13.374;2023-11-21T05:54:42;12.00;;;7.78;;
2129;SDS011;1071;52.544;13.374;2023-11-21T05:57:09;7.82;;;6.57;;
2129;SDS011;1071;52.544;13.374;2023-11-21T05:59:36;9.07;;;7.75;;
2129;SDS011;1071;52.544;13.374;2023-11-21T06:02:03;8.98;;;8.07;;
2129;SDS011;1071;52.544;13.374;2023-11-21T06:04:30;7.82;;;6.65;;
2129;SDS011;1071;52.544;13.374;2023-11-21T06:06:58;7.78;;;7.07;;
2129;SDS011;1071;52.544;13.374;2023-11-21T06:09:26;8.35;;;7.30;;
2129;SDS011;1071;52.544;13.374;2023-11-21T06:11:53;7.90;;;7.10;;
2129;SDS011;1071;52.544;13.374;2023-11-21T06:14:20;9.55;;;8.63;;
2129;SDS011;1071;52.544;13.374;2023-11-21T06:16:47;8.43;;;7.50;;
2129;SDS011;1071;52.544;13.374;2023-11-21T06:19:17;9.75;;;8.88;;
2129;SDS011;1071;52.544;13.374;2023-11-21T06:21:45;9.02;;;8.20;;
2129;SDS011;1071;52.544;13.374;2023-11-21T06:24:14;8.60;;;7.80;;
2129;SDS011;1071;52.544;13.374;2023-11-21T06:26:42;9.35;;;8.45;;
2129;SDS011;1071;52.544;13.374;2023-11-21T06:29:09;9.18;;;8.27;;
2129;SDS011;1071;52.544;13.374;2023-11-21T06:31:37;9.10;;;8.30;;
2129;SDS011;1071;52.544;13.374;2023-11-21T06:34:05;7.97;;;7.18;;
2129;SDS011;1071;52.544;13.374;2023-11-21T06:36:34;9.20;;;6.35;;
2129;SDS011;1071;52.544;13.374;2023-11-21T06:39:01;6.65;;;5.95;;
2129;SDS011;1071;52.544;13.374;2023-11-21T06:41:33;6.22;;;5.63;;
2129;SDS011;1071;52.544;13.374;2023-11-21T06:44:00;7.95;;;5.63;;
2129;SDS011;1071;52.544;13.374;2023-11-21T06:46:27;6.85;;;6.10;;
2129;SDS011;1071;52.544;13.374;2023-11-21T06:48:54;8.15;;;6.35;;
2129;SDS011;1071;52.544;13.374;2023-11-21T06:51:21;6.47;;;5.93;;
2129;SDS011;1071;52.544;13.374;2023-11-21T06:53:48;7.28;;;6.15;;
2129;SDS011;1071;52.544;13.374;2023-11-21T06:56:16;6.18;;;5.63;;
2129;SDS011;1071;52.544;13.374;2023-11-21T06:58:45;6.18;;;5.65;;
2129;SDS011;1071;52.544;13.374;2023-11-21T07:01:12;5.20;;;4.75;;
2129;SDS011;1071;52.544;13.374;2023-11-21T07:03:40;6.03;;;5.50;;
2129;SDS011;1071;52.544;13.374;2023-11-21T07:06:08;6.25;;;5.20;;
2129;SDS011;1071;52.544;13.374;2023-11-21T07:08:35;6.70;;;6.10;;
2129;SDS011;1071;52.544;13.374;2023-11-21T07:11:03;6.78;;;6.18;;
2129;SDS011;1071;52.544;13.374;2023-11-21T07:13:30;6.10;;;5.55;;
2129;SDS011;1071;52.544;13.374;2023-11-21T07:15:58;7.20;;;6.18;;
2129;SDS011;1071;52.544;13.374;2023-11-21T07:18:25;6.40;;;5.82;;
2129;SDS011;1071;52.544;13.374;2023-11-21T07:21:00;7.03;;;6.40;;
2129;SDS011;1071;52.544;13.374;2023-11-21T07:23:28;8.18;;;7.45;;
2129;SDS011;1071;52.544;13.374;2023-11-21T07:25:55;8.63;;;7.72;;
2129;SDS011;1071;52.544;13.374;2023-11-21T07:28:28;6.53;;;5.90;;
2129;SDS011;1071;52.544;13.374;2023-11-21T07:30:56;8.15;;;7.35;;
2129;SDS011;1071;52.544;13.374;2023-11-21T07:33:26;7.18;;;6.35;;
2129;SDS011;1071;52.544;13.374;2023-11-21T07:35:53;6.47;;;5.88;;
2129;SDS011;1071;52.544;13.374;2023-11-21T07:38:19;7.50;;;6.90;;
2129;SDS011;1071;52.544;13.374;2023-11-21T07:40:46;7.10;;;6.40;;
2129;SDS011;1071;52.544;13.374;2023-11-21T07:43:13;7.75;;;7.05;;
2129;SDS011;1071;52.544;13.374;2023-11-21T07:45:40;7.22;;;6.55;;
2129;SDS011;1071;52.544;13.374;2023-11-21T07:48:08;7.55;;;6.80;;
2129;SDS011;1071;52.544;13.374;2023-11-21T07:50:37;8.48;;;7.57;;
2129;SDS011;1071;52.544;13.374;2023-11-21T07:53:04;8.55;;;6.72;;
2129;SDS011;1071;52.544;13.374;2023-11-21T07:58:57;7.32;;;6.57;;
2129;SDS011;1071;52.544;13.374;2023-11-21T08:01:24;7.03;;;6.32;;
2129;SDS011;1071;52.544;13.374;2023-11-21T08:03:53;7.38;;;5.95;;
2129;SDS011;1071;52.544;13.374;2023-11-21T08:06:23;6.93;;;6.22;;
2129;SDS011;1071;52.544;13.374;2023-11-21T08:08:50;4.68;;;4.25;;
2129;SDS011;1071;52.544;13.374;2023-11-21T08:11:19;6.13;;;5.53;;
2129;SDS011;1071;52.544;13.374;2023-11-21T08:13:47;7.10;;;5.85;;
2129;SDS011;1071;52.544;13.374;2023-11-21T08:16:14;5.97;;;5.22;;
2129;SDS011;1071;52.544;13.374;2023-11-21T08:18:44;6.70;;;5.72;;
2129;SDS011;1071;52.544;13.374;2023-11-21T08:21:12;6.50;;;5.90;;
2129;SDS011;1071;52.544;13.374;2023-11-21T08:23:40;29.13;;;18.77;;
2129;SDS011;1071;52.544;13.374;2023-11-21T08:26:07;10.13;;;9.13;;
2129;SDS011;1071;52.544;13.374;2023-11-21T08:28:34;9.90;;;8.88;;
2129;SDS011;1071;52.544;13.374;2023-11-21T08:31:01;19.13;;;13.40;;
2129;SDS011;1071;52.544;13.374;2023-11-21T08:33:28;9.32;;;6.32;;
2129;SDS011;1071;52.544;13.374;2023-11-21T08:35:55;5.45;;;5.05;;
2129;SDS011;1071;52.544;13.374;2023-11-21T08:38:22;5.90;;;5.40;;
2129;SDS011;1071;52.544;13.374;2023-11-21T08:43:49;6.93;;;5.45;;
2129;SDS011;1071;52.544;13.374;2023-11-21T08:46:16;6.53;;;5.40;;
2129;SDS011;1071;52.544;13.374;2023-11-21T08:48:44;6.20;;;5.50;;
2129;SDS011;1071;52.544;13.374;2023-11-21T08:51:12;5.65;;;5.07;;
2129;SDS011;1071;52.544;13.374;2023-11-21T08:53:39;5.32;;;4.40;;
2129;SDS011;1071;52.544;13.374;2023-11-21T08:56:07;6.13;;;5.25;;
2129;SDS011;1071;52.544;13.374;2023-11-21T08:58:36;5.85;;;4.85;;
2129;SDS011;1071;52.544;13.374;2023-11-21T09:01:03;5.65;;;4.97;;
2129;SDS011;1071;52.544;13.374;2023-11-21T09:03:32;6.60;;;5.55;;
2129;SDS011;1071;52.544;13.374;2023-11-21T09:05:59;5.90;;;5.13;;
2129;SDS011;1071;52.544;13.374;2023-11-21T09:08:28;8.48;;;5.72;;
2129;SDS011;1071;52.544;13.374;2023-11-21T09:10:55;4.90;;;4.05;;
2129;SDS011;1071;52.544;13.374;2023-11-21T09:13:22;7.68;;;5.55;;
2129;SDS011;1071;52.544;13.374;2023-11-21T09:15:51;7.82;;;5.53;;
2129;SDS011;1071;52.544;13.374;2023-11-21T09:18:18;8.27;;;5.93;;
2129;SDS011;1071;52.544;13.374;2023-11-21T09:20:45;6.05;;;5.45;;
2129;SDS011;1071;52.544;13.374;2023-11-21T09:23:12;11.02;;;5.93;;
2129;SDS011;1071;52.544;13.374;2023-11-21T09:25:39;7.90;;;6.40;;
2129;SDS011;1071;52.544;13.374;2023-11-21T09:28:05;10.25;;;5.90;;
2129;SDS011;1071;52.544;13.374;2023-11-21T09:30:33;11.10;;;6.47;;
2129;SDS011;1071;52.544;13.374;2023-11-21T09:33:02;8.10;;;6.00;;
2129;SDS011;1071;52.544;13.374;2023-11-21T09:35:32;11.27;;;6.85;;
2129;SDS011;1071;52.544;13.374;2023-11-21T09:37:59;11.55;;;7.10;;
2129;SDS011;1071;52.544;13.374;2023-11-21T09:40:30;9.38;;;6.78;;
2129;SDS011;1071;52.544;13.374;2023-11-21T09:42:58;13.60;;;7.85;;
2129;SDS011;1071;52.544;13.374;2023-11-21T09:45:25;13.05;;;9.32;;
2129;SDS011;1071;52.544;13.374;2023-11-21T09:47:53;13.85;;;7.53;;
2129;SDS011;1071;52.544;13.374;2023-11-21T09:50:23;11.40;;;7.30;;
2129;SDS011;1071;52.544;13.374;2023-11-21T09:52:54;10.68;;;7.13;;
2129;SDS011;1071;52.544;13.374;2023-11-21T09:55:26;15.20;;;8.68;;
2129;SDS011;1071;52.544;13.374;2023-11-21T09:57:55;10.73;;;6.70;;
2129;SDS011;1071;52.544;13.374;2023-11-21T10:00:26;12.00;;;7.32;;
2129;SDS011;1071;52.544;13.374;2023-11-21T10:02:53;9.65;;;7.20;;
2129;SDS011;1071;52.544;13.374;2023-11-21T10:05:23;10.48;;;6.82;;
2129;SDS011;1071;52.544;13.374;2023-11-21T10:07:50;9.48;;;7.55;;
2129;SDS011;1071;52.544;13.374;2023-11-21T10:10:19;10.13;;;7.32;;
2129;SDS011;1071;52.544;13.374;2023-11-21T10:12:49;13.02;;;7.65;;
2129;SDS011;1071;52.544;13.374;2023-11-21T10:15:18;11.10;;;6.97;;
2129;SDS011;1071;52.544;13.374;2023-11-21T10:17:48;11.82;;;7.68;;
2129;SDS011;1071;52.544;13.374;2023-11-21T10:20:18;12.30;;;7.25;;
2129;SDS011;1071;52.544;13.374;2023-11-21T10:22:48;11.50;;;6.50;;
2129;SDS011;1071;52.544;13.374;2023-11-21T10:25:15;13.57;;;8.40;;
2129;SDS011;1071;52.544;13.374;2023-11-21T10:27:46;8.95;;;6.15;;
2129;SDS011;1071;52.544;13.374;2023-11-21T10:30:16;9.85;;;6.03;;
2129;SDS011;1071;52.544;13.374;2023-11-21T10:32:43;8.93;;;6.40;;
2129;SDS011;1071;52.544;13.374;2023-11-21T10:35:14;9.27;;;5.75;;
2129;SDS011;1071;52.544;13.374;2023-11-21T10:37:41;6.13;;;4.60;;
2129;SDS011;1071;52.544;13.374;2023-11-21T10:40:11;6.55;;;4.82;;
2129;SDS011;1071;52.544;13.374;2023-11-21T10:42:38;6.72;;;5.50;;
2129;SDS011;1071;52.544;13.374;2023-11-21T10:45:06;7.50;;;5.35;;
2129;SDS011;1071;52.544;13.374;2023-11-21T10:47:38;6.45;;;5.85;;
2129;SDS011;1071;52.544;13.374;2023-11-21T10:50:05;5.60;;;5.00;;
2129;SDS011;1071;52.544;13.374;2023-11-21T10:52:36;4.70;;;4.13;;
2129;SDS011;1071;52.544;13.374;2023-11-21T10:55:06;5.85;;;4.60;;
2129;SDS011;1071;52.544;13.374;2023-11-21T10:57:46;7.10;;;6.40;;
2129;SDS011;1071;52.544;13.374;2023-11-21T11:00:29;6.07;;;5.10;;
2129;SDS011;1071;52.544;13.374;2023-11-21T11:02:56;6.18;;;5.15;;
2129;SDS011;1071;52.544;13.374;2023-11-21T11:05:24;4.13;;;3.83;;
2129;SDS011;1071;52.544;13.374;2023-11-21T11:07:56;5.28;;;4.30;;
2129;SDS011;1071;52.544;13.374;2023-11-21T11:10:28;4.70;;;4.25;;
2129;SDS011;1071;52.544;13.374;2023-11-21T11:12:55;5.35;;;4.85;;
2129;SDS011;1071;52.544;13.374;2023-11-21T11:15:23;4.80;;;4.38;;
2129;SDS011;1071;52.544;13.374;2023-11-21T11:17:51;4.70;;;4.30;;
2129;SDS011;1071;52.544;13.374;2023-11-21T11:20:22;4.70;;;4.25;;
2129;SDS011;1071;52.544;13.374;2023-11-21T11:22:56;6.45;;;4.85;;
2129;SDS011;1071;52.544;13.374;2023-11-21T11:25:38;10.18;;;5.10;;
2129;SDS011;1071;52.544;13.374;2023-11-21T11:28:20;6.82;;;4.50;;
2129;SDS011;1071;52.544;13.374;2023-11-21T11:30:57;4.07;;;3.67;;
2129;SDS011;1071;52.544;13.374;2023-11-21T11:33:31;4.45;;;4.03;;
2129;SDS011;1071;52.544;13.374;2023-11-21T11:36:06;4.60;;;3.63;;
2129;SDS011;1071;52.544;13.374;2023-11-21T11:38:36;3.95;;;3.28;;
2129;SDS011;1071;52.544;13.374;2023-11-21T11:41:07;3.90;;;3.17;;
2129;SDS011;1071;52.544;13.374;2023-11-21T11:43:35;4.00;;;3.70;;
2129;SDS011;1071;52.544;13.374;2023-11-21T11:46:09;4.13;;;3.45;;
2129;SDS011;1071;52.544;13.374;2023-11-21T11:48:38;4.18;;;3.78;;
2129;SDS011;1071;52.544;13.374;2023-11-21T11:51:06;4.38;;;3.95;;
2129;SDS011;1071;52.544;13.374;2023-11-21T11:53:39;3.83;;;3.47;;
2129;SDS011;1071;52.544;13.374;2023-11-21T11:56:24;5.10;;;3.58;;
2129;SDS011;1071;52.544;13.374;2023-11-21T11:58:54;3.55;;;3.03;;
2129;SDS011;1071;52.544;13.374;2023-11-21T12:01:23;4.72;;;3.08;;
2129;SDS011;1071;52.544;13.374;2023-11-21T12:06:56;4.07;;;3.70;;
2129;SDS011;1071;52.544;13.374;2023-11-21T12:09:25;4.07;;;3.63;;
2129;SDS011;1071;52.544;13.374;2023-11-21T12:11:54;4.20;;;3.80;;
2129;SDS011;1071;52.544;13.374;2023-11-21T12:14:22;4.15;;;3.78;;
2129;SDS011;1071;52.544;13.374;2023-11-21T12:16:50;4.82;;;4.40;;
2129;SDS011;1071;52.544;13.374;2023-11-21T12:19:18;5.78;;;5.22;;
2129;SDS011;1071;52.544;13.374;2023-11-21T12:21:47;4.60;;;4.20;;
2129;SDS011;1071;52.544;13.374;2023-11-21T12:24:15;4.65;;;4.20;;
2129;SDS011;1071;52.544;13.374;2023-11-21T12:26:42;4.32;;;3.85;;
2129;SDS011;1071;52.544;13.374;2023-11-21T12:29:11;3.45;;;3.15;;
2129;SDS011;1071;52.544;13.374;2023-11-21T12:31:41;5.07;;;4.65;;
2129;SDS011;1071;52.544;13.374;2023-11-21T12:34:08;4.35;;;3.95;;
2129;SDS011;1071;52.544;13.374;2023-11-21T12:36:36;4.25;;;3.95;;
2129;SDS011;1071;52.544;13.374;2023-11-21T12:39:04;3.90;;;3.50;;
2129;SDS011;1071;52.544;13.374;2023-11-21T12:41:34;4.60;;;4.20;;
2129;SDS011;1071;52.544;13.374;2023-11-21T12:44:01;4.70;;;4.30;;
2129;SDS011;1071;52.544;13.374;2023-11-21T12:46:29;4.30;;;3.90;;
2129;SDS011;1071;52.544;13.374;2023-11-21T12:48:58;4.40;;;4.00;;
2129;SDS011;1071;52.544;13.374;2023-11-21T12:51:27;4.72;;;4.38;;
2129;SDS011;1071;52.544;13.374;2023-11-21T12:53:55;4.00;;;3.70;;
2129;SDS011;1071;52.544;13.374;2023-11-21T12:56:23;4.32;;;4.00;;
2129;SDS011;1071;52.544;13.374;2023-11-21T12:58:53;4.88;;;4.03;;
2129;SDS011;1071;52.544;13.374;2023-11-21T13:01:22;5.05;;;4.65;;
2129;SDS011;1071;52.544;13.374;2023-11-21T13:03:58;4.68;;;4.28;;
2129;SDS011;1071;52.544;13.374;2023-11-21T13:06:27;4.57;;;4.25;;
2129;SDS011;1071;52.544;13.374;2023-11-21T13:08:58;4.15;;;3.75;;
2129;SDS011;1071;52.544;13.374;2023-11-21T13:11:26;4.88;;;4.38;;
2129;SDS011;1071;52.544;13.374;2023-11-21T13:13:56;4.68;;;4.25;;
2129;SDS011;1071;52.544;13.374;2023-11-21T13:16:25;5.60;;;4.85;;
2129;SDS011;1071;52.544;13.374;2023-11-21T13:18:52;5.10;;;4.50;;
2129;SDS011;1071;52.544;13.374;2023-11-21T13:21:21;5.47;;;4.53;;
2129;SDS011;1071;52.544;13.374;2023-11-21T13:23:51;5.20;;;4.70;;
2129;SDS011;1071;52.544;13.374;2023-11-21T13:26:21;5.70;;;5.15;;
2129;SDS011;1071;52.544;13.374;2023-11-21T13:28:49;6.50;;;5.20;;
2129;SDS011;1071;52.544;13.374;2023-11-21T13:31:16;7.28;;;6.22;;
2129;SDS011;1071;52.544;13.374;2023-11-21T13:33:52;5.95;;;5.35;;
2129;SDS011;1071;52.544;13.374;2023-11-21T13:36:25;7.05;;;5.32;;
2129;SDS011;1071;52.544;13.374;2023-11-21T13:38:55;7.88;;;6.10;;
2129;SDS011;1071;52.544;13.374;2023-11-21T13:41:23;8.10;;;6.63;;
2129;SDS011;1071;52.544;13.374;2023-11-21T13:43:55;6.60;;;5.97;;
2129;SDS011;1071;52.544;13.374;2023-11-21T13:46:31;7.25;;;5.75;;
2129;SDS011;1071;52.544;13.374;2023-11-21T13:49:02;5.65;;;5.15;;
2129;SDS011;1071;52.544;13.374;2023-11-21T13:51:33;7.38;;;6.65;;
2129;SDS011;1071;52.544;13.374;2023-11-21T13:54:08;8.63;;;6.35;;
2129;SDS011;1071;52.544;13.374;2023-11-21T13:56:35;11.60;;;8.25;;
2129;SDS011;1071;52.544;13.374;2023-11-21T13:59:04;13.13;;;9.63;;
2129;SDS011;1071;52.544;13.374;2023-11-21T14:01:41;14.57;;;10.30;;
2129;SDS011;1071;52.544;13.374;2023-11-21T14:04:20;12.15;;;10.00;;
2129;SDS011;1071;52.544;13.374;2023-11-21T14:07:02;9.70;;;8.52;;
2129;SDS011;1071;52.544;13.374;2023-11-21T14:09:50;10.93;;;8.85;;
2129;SDS011;1071;52.544;13.374;2023-11-21T14:12:18;11.85;;;9.43;;
2129;SDS011;1071;52.544;13.374;2023-11-21T14:14:45;14.75;;;10.63;;
2129;SDS011;1071;52.544;13.374;2023-11-21T14:17:12;11.35;;;10.25;;
2129;SDS011;1071;52.544;13.374;2023-11-21T14:19:39;12.35;;;10.43;;
2129;SDS011;1071;52.544;13.374;2023-11-21T14:22:09;12.48;;;11.05;;
2129;SDS011;1071;52.544;13.374;2023-11-21T14:24:39;14.60;;;11.73;;
2129;SDS011;1071;52.544;13.374;2023-11-21T14:27:10;11.13;;;9.98;;
2129;SDS011;1071;52.544;13.374;2023-11-21T14:29:46;12.95;;;11.55;;
2129;SDS011;1071;52.544;13.374;2023-11-21T14:32:31;12.70;;;11.40;;
2129;SDS011;1071;52.544;13.374;2023-11-21T14:34:58;13.50;;;12.10;;
2129;SDS011;1071;52.544;13.374;2023-11-21T14:37:26;15.50;;;12.75;;
2129;SDS011;1071;52.544;13.374;2023-11-21T14:40:01;16.00;;;11.57;;
2129;SDS011;1071;52.544;13.374;2023-11-21T14:42:46;13.35;;;11.52;;
2129;SDS011;1071;52.544;13.374;2023-11-21T14:45:22;15.77;;;13.13;;
2129;SDS011;1071;52.544;13.374;2023-11-21T14:47:51;13.38;;;12.07;;
2129;SDS011;1071;52.544;13.374;2023-11-21T14:50:27;17.20;;;13.93;;
2129;SDS011;1071;52.544;13.374;2023-11-21T14:53:35;16.08;;;11.98;;
2129;SDS011;1071;52.544;13.374;2023-11-21T14:56:18;14.45;;;12.88;;
2129;SDS011;1071;52.544;13.374;2023-11-21T14:58:52;13.63;;;12.10;;
2129;SDS011;1071;52.544;13.374;2023-11-21T15:01:19;16.65;;;13.55;;
2129;SDS011;1071;52.544;13.374;2023-11-21T15:03:58;14.70;;;13.00;;
2129;SDS011;1071;52.544;13.374;2023-11-21T15:06:30;15.10;;;12.45;;
2129;SDS011;1071;52.544;13.374;2023-11-21T15:12:31;14.20;;;12.45;;
2129;SDS011;1071;52.544;13.374;2023-11-21T15:15:03;13.48;;;12.05;;